createdAt,value
2017-02-07T00:00:07.892Z,74.99
2017-02-07T00:01:08.441Z,75.36
2017-02-07T00:02:08.165Z,74.92
2017-02-07T00:03:07.743Z,75.07
2017-02-07T00:04:08.250Z,75.17
2017-02-07T00:05:07.724Z,74.66
2017-02-07T00:06:08.221Z,74.91
2017-02-07T00:07:07.719Z,74.37
2017-02-07T00:08:08.337Z,75.46
2017-02-07T00:09:07.941Z,74.90
2017-02-07T00:10:08.463Z,75.15
2017-02-07T00:11:08.170Z,75.09
2017-02-07T00:12:07.664Z,75.14
2017-02-07T00:13:08.211Z,74.86
2017-02-07T00:14:07.943Z,74.77
2017-02-07T00:15:07.462Z,74.31
2017-02-07T00:16:08.042Z,74.58
2017-02-07T00:17:07.914Z,75.20
2017-02-07T00:18:08.467Z,74.40
2017-02-07T00:19:08.003Z,74.95
2017-02-07T00:20:07.573Z,74.29
2017-02-07T00:21:08.098Z,74.24
2017-02-07T00:22:07.612Z,74.85
2017-02-07T00:23:08.195Z,74.25
2017-02-07T00:24:07.800Z,75.04
2017-02-07T00:25:08.310Z,74.92
2017-02-07T00:26:07.859Z,75.35
2017-02-07T00:27:08.661Z,75.70
2017-02-07T00:28:08.251Z,75.14
2017-02-07T00:29:07.786Z,75.52
2017-02-07T00:30:08.283Z,74.74
2017-02-07T00:31:07.743Z,74.71
2017-02-07T00:32:08.271Z,75.08
2017-02-07T00:33:07.991Z,74.95
2017-02-07T00:34:07.532Z,75.60
2017-02-07T00:35:08.140Z,75.55
2017-02-07T00:36:07.903Z,75.23
2017-02-07T00:37:08.510Z,75.13
2017-02-07T00:38:08.386Z,75.49
2017-02-07T00:39:07.897Z,75.11
2017-02-07T00:40:08.397Z,75.02
2017-02-07T00:41:07.868Z,75.93
2017-02-07T00:42:08.433Z,76.16
2017-02-07T00:43:07.992Z,76.26
2017-02-07T00:44:07.597Z,75.90
2017-02-07T00:45:08.086Z,75.30
2017-02-07T00:46:07.580Z,75.17
2017-02-07T00:47:08.275Z,75.18
2017-02-07T00:48:08.024Z,74.89
2017-02-07T00:49:07.548Z,74.51
2017-02-07T00:50:08.125Z,74.71
2017-02-07T00:51:07.812Z,74.60
2017-02-07T00:52:08.347Z,75.85
2017-02-07T00:53:07.863Z,75.09
2017-02-07T00:54:08.573Z,75.62
2017-02-07T00:55:08.081Z,74.97
2017-02-07T00:56:07.542Z,75.12
2017-02-07T00:57:08.094Z,75.04
2017-02-07T00:58:07.559Z,75.48
2017-02-07T00:59:08.128Z,75.50
2017-02-07T01:00:07.661Z,75.28
2017-02-07T01:01:08.227Z,74.92
2017-02-07T01:02:07.761Z,75.13
2017-02-07T01:03:08.527Z,75.34
2017-02-07T01:04:08.160Z,75.40
2017-02-07T01:05:07.753Z,75.03
2017-02-07T01:06:08.309Z,75.30
2017-02-07T01:07:07.766Z,75.41
2017-02-07T01:08:08.374Z,75.28
2017-02-07T01:09:07.910Z,74.54
2017-02-07T01:10:08.594Z,74.85
2017-02-07T01:11:08.149Z,74.51
2017-02-07T01:12:07.633Z,75.11
2017-02-07T01:13:08.259Z,75.20
2017-02-07T01:14:07.781Z,76.00
2017-02-07T01:15:08.311Z,75.83
2017-02-07T01:16:07.961Z,76.12
2017-02-07T01:17:07.723Z,75.57
2017-02-07T01:18:08.227Z,75.61
2017-02-07T01:19:07.863Z,75.35
2017-02-07T01:20:08.396Z,75.44
2017-02-07T01:21:07.920Z,75.47
2017-02-07T01:22:08.519Z,75.44
2017-02-07T01:23:08.016Z,75.91
2017-02-07T01:24:07.554Z,75.74
2017-02-07T01:25:08.275Z,75.09
2017-02-07T01:26:07.751Z,74.70
2017-02-07T01:27:08.383Z,74.90
2017-02-07T01:28:08.239Z,75.57
2017-02-07T01:29:07.771Z,75.63
2017-02-07T01:30:08.414Z,75.12
2017-02-07T01:31:07.962Z,74.64
2017-02-07T01:32:07.496Z,74.82
2017-02-07T01:33:08.010Z,75.12
2017-02-07T01:34:07.492Z,74.67
2017-02-07T01:35:08.003Z,74.46
2017-02-07T01:36:07.550Z,74.96
2017-02-07T01:37:08.140Z,75.00
2017-02-07T01:38:07.624Z,75.43
2017-02-07T01:39:08.107Z,75.23
2017-02-07T01:40:07.747Z,75.72
2017-02-07T01:41:08.384Z,75.30
2017-02-07T01:42:08.159Z,75.46
2017-02-07T01:43:07.607Z,75.11
2017-02-07T01:44:08.116Z,74.78
2017-02-07T01:45:07.690Z,74.59
2017-02-07T01:46:08.489Z,75.36
2017-02-07T01:47:08.336Z,74.80
2017-02-07T01:48:07.909Z,75.50
2017-02-07T01:49:08.398Z,75.26
2017-02-07T01:50:07.954Z,75.01
2017-02-07T01:51:07.548Z,75.45
2017-02-07T01:52:08.106Z,76.62
2017-02-07T01:53:07.897Z,76.17
2017-02-07T01:54:08.366Z,76.09
2017-02-07T01:55:07.848Z,76.24
2017-02-07T01:56:08.578Z,75.93
2017-02-07T01:57:08.186Z,75.88
2017-02-07T01:58:07.666Z,75.93
2017-02-07T01:59:08.175Z,76.49
2017-02-07T02:00:07.857Z,76.39
2017-02-07T02:01:08.367Z,77.08
2017-02-07T02:02:07.919Z,76.85
2017-02-07T02:03:08.474Z,76.58
2017-02-07T02:04:08.072Z,76.05
2017-02-07T02:05:07.637Z,76.24
2017-02-07T02:06:08.375Z,76.12
2017-02-07T02:07:07.974Z,76.18
2017-02-07T02:08:07.448Z,76.36
2017-02-07T02:09:07.943Z,75.84
2017-02-07T02:10:07.518Z,75.86
2017-02-07T02:11:08.156Z,75.46
2017-02-07T02:12:07.784Z,76.26
2017-02-07T02:13:08.283Z,75.62
2017-02-07T02:14:07.802Z,76.61
2017-02-07T02:15:08.384Z,76.32
2017-02-07T02:16:07.892Z,76.42
2017-02-07T02:17:08.737Z,75.88
2017-02-07T02:18:08.208Z,76.07
2017-02-07T02:19:07.677Z,75.88
2017-02-07T02:20:08.306Z,76.15
2017-02-07T02:21:07.799Z,75.45
2017-02-07T02:22:08.397Z,76.04
2017-02-07T02:23:07.881Z,76.52
2017-02-07T02:24:08.359Z,76.91
2017-02-07T02:25:07.820Z,76.45
2017-02-07T02:26:08.625Z,76.84
2017-02-07T02:27:08.268Z,75.96
2017-02-07T02:28:07.743Z,76.55
2017-02-07T02:29:08.457Z,76.25
2017-02-07T02:30:08.066Z,76.22
2017-02-07T02:31:07.603Z,75.76
2017-02-07T02:32:08.321Z,75.68
2017-02-07T02:33:07.801Z,76.06
2017-02-07T02:34:08.301Z,75.27
2017-02-07T02:35:07.803Z,75.82
2017-02-07T02:36:08.353Z,76.53
2017-02-07T02:37:07.837Z,76.04
2017-02-07T02:38:08.323Z,75.80
2017-02-07T02:39:07.844Z,75.45
2017-02-07T02:40:08.342Z,75.55
2017-02-07T02:41:08.244Z,75.65
2017-02-07T02:42:07.773Z,76.18
2017-02-07T02:43:08.386Z,76.14
2017-02-07T02:44:07.905Z,75.88
2017-02-07T02:45:08.372Z,76.97
2017-02-07T02:46:07.912Z,76.41
2017-02-07T02:47:08.624Z,75.92
2017-02-07T02:48:08.371Z,75.94
2017-02-07T02:49:07.892Z,75.67
2017-02-07T02:50:08.411Z,76.07
2017-02-07T02:51:07.907Z,76.37
2017-02-07T02:52:08.431Z,76.83
2017-02-07T02:53:07.958Z,77.08
2017-02-07T02:54:07.631Z,77.16
2017-02-07T02:55:07.575Z,76.78
2017-02-07T02:56:08.183Z,75.80
2017-02-07T02:57:07.672Z,75.76
2017-02-07T02:58:08.284Z,76.63
2017-02-07T02:59:07.781Z,76.61
2017-02-07T03:00:08.286Z,76.07
2017-02-07T03:01:07.796Z,76.04
2017-02-07T03:02:08.430Z,76.45
2017-02-07T03:03:07.966Z,76.67
2017-02-07T03:04:07.604Z,76.62
2017-02-07T03:05:08.350Z,76.38
2017-02-07T03:06:08.023Z,76.90
2017-02-07T03:07:07.620Z,77.21
2017-02-07T03:08:08.331Z,76.98
2017-02-07T03:09:07.915Z,77.51
2017-02-07T03:10:08.500Z,77.32
2017-02-07T03:11:08.092Z,76.69
2017-02-07T03:12:07.582Z,76.12
2017-02-07T03:13:08.103Z,76.28
2017-02-07T03:14:07.583Z,76.92
2017-02-07T03:15:08.256Z,77.00
2017-02-07T03:16:07.751Z,77.61
2017-02-07T03:17:08.633Z,77.56
2017-02-07T03:18:08.236Z,77.91
2017-02-07T03:19:07.835Z,77.25
2017-02-07T03:20:08.388Z,76.78
2017-02-07T03:21:07.909Z,76.81
2017-02-07T03:22:08.715Z,77.05
2017-02-07T03:23:08.281Z,76.51
2017-02-07T03:24:07.832Z,77.29
2017-02-07T03:25:08.404Z,76.67
2017-02-07T03:26:07.948Z,76.79
2017-02-07T03:27:07.571Z,76.69
2017-02-07T03:28:08.190Z,76.82
2017-02-07T03:29:07.694Z,77.06
2017-02-07T03:30:08.221Z,77.52
2017-02-07T03:31:07.681Z,77.10
2017-02-07T03:32:08.229Z,77.09
2017-02-07T03:33:07.931Z,77.14
2017-02-07T03:34:07.566Z,77.48
2017-02-07T03:35:08.135Z,77.87
2017-02-07T03:36:07.527Z,77.75
2017-02-07T03:37:08.274Z,77.54
2017-02-07T03:38:08.063Z,77.01
2017-02-07T03:39:07.539Z,76.66
2017-02-07T03:40:08.111Z,76.77
2017-02-07T03:41:07.798Z,77.46
2017-02-07T03:42:08.289Z,77.77
2017-02-07T03:43:07.805Z,77.25
2017-02-07T03:44:08.601Z,76.69
2017-02-07T03:45:08.127Z,77.44
2017-02-07T03:46:07.688Z,76.34
2017-02-07T03:47:08.648Z,76.76
2017-02-07T03:48:08.326Z,76.80
2017-02-07T03:49:07.841Z,77.27
2017-02-07T03:50:08.423Z,77.69
2017-02-07T03:51:08.132Z,77.11
2017-02-07T03:52:07.602Z,76.50
2017-02-07T03:53:08.173Z,77.54
2017-02-07T03:54:07.618Z,77.38
2017-02-07T03:55:08.138Z,77.85
2017-02-07T03:56:07.747Z,77.61
2017-02-07T03:57:08.500Z,77.28
2017-02-07T03:58:08.188Z,77.35
2017-02-07T03:59:07.768Z,78.15
2017-02-07T04:00:08.374Z,77.60
2017-02-07T04:01:07.857Z,77.50
2017-02-07T04:02:08.435Z,77.75
2017-02-07T04:03:08.132Z,77.06
2017-02-07T04:04:07.978Z,76.76
2017-02-07T04:05:07.476Z,77.18
2017-02-07T04:06:08.041Z,77.57
2017-02-07T04:07:07.500Z,77.87
2017-02-07T04:08:08.158Z,77.74
2017-02-07T04:09:07.629Z,77.01
2017-02-07T04:10:08.135Z,77.50
2017-02-07T04:11:08.012Z,77.37
2017-02-07T04:12:07.640Z,77.73
2017-02-07T04:13:08.203Z,76.79
2017-02-07T04:14:07.699Z,76.43
2017-02-07T04:15:08.307Z,76.47
2017-02-07T04:16:07.789Z,76.21
2017-02-07T04:17:08.657Z,75.83
2017-02-07T04:18:08.321Z,75.92
2017-02-07T04:19:07.778Z,75.86
2017-02-07T04:20:08.364Z,76.45
2017-02-07T04:21:07.921Z,76.45
2017-02-07T04:22:08.479Z,77.05
2017-02-07T04:23:08.317Z,77.42
2017-02-07T04:24:07.829Z,77.25
2017-02-07T04:25:28.091Z,77.44
2017-02-07T04:26:07.618Z,76.55
2017-02-07T04:27:08.150Z,77.37
2017-02-07T04:28:07.676Z,77.54
2017-02-07T04:29:08.490Z,77.81
2017-02-07T04:30:08.076Z,77.37
2017-02-07T04:31:07.545Z,77.57
2017-02-07T04:32:08.163Z,77.52
2017-02-07T04:33:07.969Z,77.12
2017-02-07T04:34:07.517Z,77.90
2017-02-07T04:35:08.270Z,77.93
2017-02-07T04:36:07.789Z,78.93
2017-02-07T04:37:08.236Z,78.42
2017-02-07T04:38:08.119Z,77.78
2017-02-07T04:39:07.571Z,78.58
2017-02-07T04:40:08.248Z,78.33
2017-02-07T04:41:07.731Z,77.65
2017-02-07T04:42:08.316Z,78.26
2017-02-07T04:43:08.072Z,79.15
2017-02-07T04:44:07.547Z,78.61
2017-02-07T04:45:08.137Z,77.65
2017-02-07T04:46:08.018Z,77.72
2017-02-07T04:47:07.678Z,77.47
2017-02-07T04:48:08.314Z,78.09
2017-02-07T04:49:07.802Z,77.93
2017-02-07T04:50:08.303Z,77.55
2017-02-07T04:51:07.728Z,77.71
2017-02-07T04:52:08.121Z,78.22
2017-02-07T04:53:07.658Z,78.42
2017-02-07T04:54:08.205Z,78.18
2017-02-07T04:55:07.948Z,77.85
2017-02-07T04:56:07.697Z,77.96
2017-02-07T04:57:08.179Z,78.16
2017-02-07T04:58:07.757Z,78.06
2017-02-07T04:59:08.384Z,77.83
2017-02-07T05:00:07.889Z,77.41
2017-02-07T05:01:08.418Z,77.12
2017-02-07T05:02:08.089Z,76.90
2017-02-07T05:03:07.686Z,77.56
2017-02-07T05:04:08.114Z,77.23
2017-02-07T05:05:07.807Z,76.81
2017-02-07T05:06:08.288Z,77.46
2017-02-07T05:07:07.800Z,78.10
2017-02-07T05:08:08.439Z,78.77
2017-02-07T05:09:07.933Z,78.47
2017-02-07T05:10:07.447Z,77.21
2017-02-07T05:11:08.210Z,77.87
2017-02-07T05:12:07.741Z,77.90
2017-02-07T05:13:08.327Z,77.70
2017-02-07T05:14:07.876Z,76.98
2017-02-07T05:15:08.460Z,76.94
2017-02-07T05:16:07.977Z,76.50
2017-02-07T05:17:07.768Z,76.74
2017-02-07T05:18:08.440Z,76.63
2017-02-07T05:19:08.077Z,76.50
2017-02-07T05:20:07.582Z,76.13
2017-02-07T05:21:08.260Z,76.15
2017-02-07T05:22:07.837Z,76.39
2017-02-07T05:23:08.465Z,76.16
2017-02-07T05:24:07.948Z,76.43
2017-02-07T05:25:10.431Z,76.41
2017-02-07T05:26:07.953Z,76.58
2017-02-07T05:27:07.528Z,76.45
2017-02-07T05:28:08.197Z,77.55
2017-02-07T05:29:07.779Z,77.74
2017-02-07T05:30:08.290Z,77.94
2017-02-07T05:31:08.021Z,78.51
2017-02-07T05:32:07.559Z,78.91
2017-02-07T05:33:08.280Z,78.89
2017-02-07T05:34:07.786Z,79.64
2017-02-07T05:35:08.299Z,78.90
2017-02-07T05:36:07.861Z,78.59
2017-02-07T05:37:08.409Z,78.96
2017-02-07T05:38:07.913Z,78.87
2017-02-07T05:39:08.461Z,79.14
2017-02-07T05:40:07.960Z,78.65
2017-02-07T05:41:07.621Z,78.56
2017-02-07T05:42:08.242Z,78.49
2017-02-07T05:43:07.773Z,78.83
2017-02-07T05:44:08.403Z,78.85
2017-02-07T05:45:08.243Z,79.15
2017-02-07T05:46:07.790Z,79.50
2017-02-07T05:47:08.483Z,80.41
2017-02-07T05:48:08.262Z,79.72
2017-02-07T05:49:07.781Z,79.33
2017-02-07T05:50:08.331Z,79.75
2017-02-07T05:51:07.998Z,79.53
2017-02-07T05:52:07.602Z,78.73
2017-02-07T05:53:08.141Z,78.53
2017-02-07T05:54:07.872Z,78.71
2017-02-07T05:55:08.569Z,79.54
2017-02-07T05:56:08.028Z,79.27
2017-02-07T05:57:07.559Z,79.88
2017-02-07T05:58:08.050Z,79.60
2017-02-07T05:59:07.674Z,79.86
2017-02-07T06:00:08.217Z,79.98
2017-02-07T06:01:07.850Z,79.63
2017-02-07T06:02:08.492Z,79.58
2017-02-07T06:03:08.074Z,80.03
2017-02-07T06:04:07.640Z,79.13
2017-02-07T06:05:08.146Z,78.98
2017-02-07T06:06:07.676Z,79.71
2017-02-07T06:07:08.554Z,80.80
2017-02-07T06:08:08.115Z,80.23
2017-02-07T06:09:07.627Z,80.52
2017-02-07T06:10:08.189Z,80.73
2017-02-07T06:11:07.746Z,80.64
2017-02-07T06:12:08.414Z,80.85
2017-02-07T06:13:07.952Z,81.06
2017-02-07T06:14:07.535Z,80.37
2017-02-07T06:15:08.111Z,80.11
2017-02-07T06:16:07.954Z,79.69
2017-02-07T06:17:07.734Z,79.34
2017-02-07T06:18:08.381Z,79.38
2017-02-07T06:19:07.892Z,79.43
2017-02-07T06:20:28.994Z,80.15
2017-02-07T06:21:07.486Z,80.00
2017-02-07T06:22:08.072Z,79.73
2017-02-07T06:23:07.646Z,80.01
2017-02-07T06:24:08.145Z,79.64
2017-02-07T06:25:07.669Z,80.03
2017-02-07T06:26:08.268Z,80.53
2017-02-07T06:27:07.859Z,81.33
2017-02-07T06:28:08.454Z,80.54
2017-02-07T06:29:08.297Z,80.33
2017-02-07T06:30:07.777Z,80.47
2017-02-07T06:31:08.416Z,80.49
2017-02-07T06:32:07.984Z,80.93
2017-02-07T06:33:07.473Z,80.58
2017-02-07T06:34:07.976Z,81.05
2017-02-07T06:35:07.478Z,80.90
2017-02-07T06:36:08.305Z,80.91
2017-02-07T06:37:07.778Z,81.12
2017-02-07T06:38:08.206Z,80.58
2017-02-07T06:39:07.767Z,80.66
2017-02-07T06:40:08.350Z,80.26
2017-02-07T06:41:07.871Z,80.04
2017-02-07T06:42:08.456Z,80.83
2017-02-07T06:43:08.129Z,80.85
2017-02-07T06:44:07.676Z,80.21
2017-02-07T06:45:08.170Z,80.60
2017-02-07T06:46:08.093Z,81.17
2017-02-07T06:47:07.950Z,80.35
2017-02-07T06:48:07.665Z,80.23
2017-02-07T06:49:08.187Z,80.04
2017-02-07T06:50:07.894Z,79.93
2017-02-07T06:51:08.537Z,79.62
2017-02-07T06:52:08.042Z,80.09
2017-02-07T06:53:07.562Z,80.26
2017-02-07T06:54:08.263Z,79.69
2017-02-07T06:55:07.936Z,80.25
2017-02-07T06:56:07.513Z,80.44
2017-02-07T06:57:08.131Z,80.56
2017-02-07T06:58:07.715Z,81.18
2017-02-07T06:59:08.236Z,80.40
2017-02-07T07:00:07.784Z,80.43
2017-02-07T07:01:19.138Z,80.34
2017-02-07T07:02:07.711Z,79.77
2017-02-07T07:03:08.238Z,80.38
2017-02-07T07:04:07.781Z,80.19
2017-02-07T07:05:08.311Z,79.56
2017-02-07T07:06:07.843Z,79.41
2017-02-07T07:07:08.545Z,79.90
2017-02-07T07:08:08.017Z,79.60
2017-02-07T07:09:07.509Z,80.53
2017-02-07T07:10:08.238Z,80.23
2017-02-07T07:11:08.047Z,79.67
2017-02-07T07:12:07.524Z,79.70
2017-02-07T07:13:08.250Z,79.69
2017-02-07T07:14:07.763Z,79.83
2017-02-07T07:15:08.260Z,79.74
2017-02-07T07:16:07.766Z,79.82
2017-02-07T07:17:08.574Z,80.82
2017-02-07T07:18:08.213Z,79.66
2017-02-07T07:19:07.784Z,79.28
2017-02-07T07:20:08.493Z,79.93
2017-02-07T07:21:07.997Z,80.05
2017-02-07T07:22:07.601Z,79.85
2017-02-07T07:23:08.083Z,79.62
2017-02-07T07:24:07.821Z,79.00
2017-02-07T07:25:08.351Z,79.26
2017-02-07T07:26:07.929Z,78.81
2017-02-07T07:27:08.438Z,79.14
2017-02-07T07:28:07.990Z,78.46
2017-02-07T07:29:07.457Z,78.77
2017-02-07T07:30:07.957Z,78.33
2017-02-07T07:31:07.439Z,78.33
2017-02-07T07:32:07.973Z,78.14
2017-02-07T07:33:07.566Z,78.75
2017-02-07T07:34:08.234Z,77.99
2017-02-07T07:35:07.913Z,78.21
2017-02-07T07:36:08.620Z,78.26
2017-02-07T07:37:08.094Z,78.25
2017-02-07T07:38:07.607Z,78.52
2017-02-07T07:39:08.319Z,78.92
2017-02-07T07:40:07.820Z,78.79
2017-02-07T07:41:08.369Z,78.98
2017-02-07T07:42:08.057Z,78.56
2017-02-07T07:43:07.580Z,78.17
2017-02-07T07:44:08.368Z,78.09
2017-02-07T07:45:07.858Z,78.66
2017-02-07T07:46:08.399Z,78.60
2017-02-07T07:47:08.051Z,78.75
2017-02-07T07:48:07.794Z,78.38
2017-02-07T07:56:09.217Z,77.91
2017-02-07T07:57:07.700Z,77.64
2017-02-07T07:58:07.440Z,77.54
2017-02-07T07:59:08.141Z,78.21
2017-02-07T08:00:07.734Z,78.88
2017-02-07T08:01:07.385Z,78.68
2017-02-07T08:02:08.086Z,77.81
2017-02-07T08:03:07.719Z,78.01
2017-02-07T08:04:08.335Z,77.67
2017-02-07T08:05:08.034Z,78.31
2017-02-07T08:06:07.679Z,78.32
2017-02-07T08:07:08.386Z,77.38
2017-02-07T08:08:07.962Z,78.38
2017-02-07T08:09:07.695Z,77.53
2017-02-07T08:10:08.327Z,78.14
2017-02-07T08:11:07.987Z,77.76
2017-02-07T08:12:07.670Z,77.40
2017-02-07T08:13:08.277Z,78.67
2017-02-07T08:14:07.947Z,78.51
2017-02-07T08:15:07.605Z,78.48
2017-02-07T08:16:08.258Z,78.77
2017-02-07T08:17:07.987Z,78.60
2017-02-07T08:18:07.728Z,79.01
2017-02-07T08:19:08.365Z,78.83
2017-02-07T08:20:07.980Z,78.30
2017-02-07T08:21:07.658Z,78.28
2017-02-07T08:22:08.298Z,77.92
2017-02-07T08:23:07.909Z,77.40
2017-02-07T08:24:07.627Z,76.90
2017-02-07T08:25:08.252Z,76.65
2017-02-07T08:26:07.938Z,76.62
2017-02-07T08:27:07.615Z,77.28
2017-02-07T08:28:08.359Z,76.57
2017-02-07T08:29:07.903Z,75.95
2017-02-07T08:30:07.521Z,76.54
2017-02-07T08:31:08.179Z,76.38
2017-02-07T08:32:07.856Z,76.62
2017-02-07T08:33:07.551Z,77.06
2017-02-07T08:34:08.119Z,77.22
2017-02-07T08:35:07.787Z,75.88
2017-02-07T08:36:07.422Z,76.11
2017-02-07T08:37:08.129Z,75.83
2017-02-07T08:38:07.762Z,75.43
2017-02-07T08:39:07.418Z,75.61
2017-02-07T08:40:08.046Z,75.67
2017-02-07T08:41:07.701Z,75.12
2017-02-07T08:42:08.413Z,75.29
2017-02-07T08:43:08.047Z,75.72
2017-02-07T08:44:07.725Z,76.28
2017-02-07T08:45:08.359Z,75.46
2017-02-07T08:46:07.956Z,75.97
2017-02-07T08:47:07.691Z,77.08
2017-02-07T08:48:08.354Z,75.73
2017-02-07T08:49:07.976Z,75.34
2017-02-07T08:50:07.629Z,74.99
2017-02-07T08:51:08.258Z,75.60
2017-02-07T08:52:08.014Z,75.51
2017-02-07T08:53:07.627Z,75.57
2017-02-07T08:54:08.287Z,74.89
2017-02-07T08:55:07.941Z,74.15
2017-02-07T08:56:07.592Z,74.17
2017-02-07T08:57:08.278Z,74.30
2017-02-07T08:58:07.947Z,74.01
2017-02-07T08:59:07.547Z,74.12
2017-02-07T09:00:08.189Z,74.53
2017-02-07T09:01:07.837Z,74.16
2017-02-07T09:02:07.545Z,73.58
2017-02-07T09:03:08.209Z,73.03
2017-02-07T09:04:07.805Z,73.68
2017-02-07T09:05:07.507Z,73.11
2017-02-07T09:06:08.164Z,72.96
2017-02-07T09:07:07.853Z,72.38
2017-02-07T09:08:07.468Z,72.06
2017-02-07T09:09:08.135Z,71.61
2017-02-07T09:10:07.777Z,72.79
2017-02-07T09:11:07.445Z,71.98
2017-02-07T09:12:08.122Z,72.15
2017-02-07T09:13:07.747Z,70.88
2017-02-07T09:14:07.425Z,70.76
2017-02-07T09:15:08.075Z,70.78
2017-02-07T09:16:07.720Z,70.98
2017-02-07T09:17:08.474Z,69.93
2017-02-07T09:18:08.216Z,69.98
2017-02-07T09:19:07.807Z,70.29
2017-02-07T09:20:07.477Z,70.05
2017-02-07T09:21:08.121Z,70.02
2017-02-07T09:22:07.802Z,70.38
2017-02-07T09:23:07.431Z,70.49
2017-02-07T09:24:08.084Z,70.93
2017-02-07T09:25:07.767Z,70.63
2017-02-07T09:26:07.415Z,70.68
2017-02-07T09:27:09.201Z,70.34
2017-02-07T09:28:07.762Z,70.28
2017-02-07T09:29:08.389Z,70.59
2017-02-07T09:30:08.036Z,70.30
2017-02-07T09:31:07.748Z,69.78
2017-02-07T09:32:07.448Z,69.68
2017-02-07T09:33:08.166Z,69.08
2017-02-07T09:34:07.771Z,69.88
2017-02-07T09:35:07.397Z,69.96
2017-02-07T09:36:08.149Z,69.74
2017-02-07T09:37:07.746Z,69.82
2017-02-07T09:38:07.447Z,70.06
2017-02-07T09:39:08.085Z,69.70
2017-02-07T09:40:07.863Z,69.66
2017-02-07T09:41:07.416Z,70.99
2017-02-07T09:42:08.057Z,70.74
2017-02-07T09:43:07.764Z,70.16
2017-02-07T09:44:08.380Z,70.19
2017-02-07T09:45:08.016Z,70.61
2017-02-07T09:46:07.681Z,70.06
2017-02-07T09:47:08.324Z,70.25
2017-02-07T09:48:08.035Z,69.38
2017-02-07T09:49:07.665Z,69.59
2017-02-07T09:50:08.313Z,69.43
2017-02-07T09:51:07.931Z,69.50
2017-02-07T09:52:07.596Z,69.52
2017-02-07T09:53:08.271Z,69.28
2017-02-07T09:54:07.915Z,69.11
2017-02-07T09:55:07.565Z,69.02
2017-02-07T09:56:08.226Z,68.78
2017-02-07T09:57:07.905Z,68.65
2017-02-07T09:58:07.636Z,68.48
2017-02-07T09:59:08.253Z,68.64
2017-02-07T10:00:07.961Z,68.96
2017-02-07T10:01:07.564Z,68.93
2017-02-07T10:02:08.236Z,68.46
2017-02-07T10:03:07.902Z,68.75
2017-02-07T10:04:07.552Z,68.39
2017-02-07T10:05:08.189Z,68.47
2017-02-07T10:06:07.937Z,68.61
2017-02-07T10:07:07.437Z,68.63
2017-02-07T10:08:08.143Z,68.59
2017-02-07T10:09:07.757Z,68.27
2017-02-07T10:10:07.423Z,68.75
2017-02-07T10:11:08.085Z,68.14
2017-02-07T10:12:07.855Z,68.14
2017-02-07T10:13:07.457Z,68.32
2017-02-07T10:14:08.077Z,68.46
2017-02-07T10:15:07.736Z,68.36
2017-02-07T10:16:08.402Z,67.84
2017-02-07T10:17:09.594Z,67.48
2017-02-07T10:18:07.890Z,67.96
2017-02-07T10:19:07.533Z,67.19
2017-02-07T10:20:08.209Z,66.54
2017-02-07T10:21:07.860Z,66.22
2017-02-07T10:22:07.472Z,66.62
2017-02-07T10:23:08.172Z,66.87
2017-02-07T10:24:07.803Z,67.44
2017-02-07T10:25:07.395Z,67.03
2017-02-07T10:26:08.128Z,67.28
2017-02-07T10:27:07.766Z,66.57
2017-02-07T10:28:07.491Z,66.53
2017-02-07T10:29:08.083Z,66.53
2017-02-07T10:30:07.737Z,66.68
2017-02-07T10:31:08.396Z,65.56
2017-02-07T10:32:08.068Z,65.72
2017-02-07T10:33:07.811Z,66.54
2017-02-07T10:34:08.362Z,66.09
2017-02-07T10:35:08.061Z,66.78
2017-02-07T10:36:07.683Z,66.30
2017-02-07T10:37:08.356Z,66.27
2017-02-07T10:38:08.034Z,65.59
2017-02-07T10:39:07.662Z,65.10
2017-02-07T10:40:08.285Z,64.57
2017-02-07T10:41:07.962Z,64.31
2017-02-07T10:42:07.634Z,63.85
2017-02-07T10:43:08.289Z,64.07
2017-02-07T10:44:07.923Z,63.31
2017-02-07T10:45:07.590Z,63.75
2017-02-07T10:46:08.270Z,63.91
2017-02-07T10:47:07.859Z,64.69
2017-02-07T10:48:07.572Z,63.77
2017-02-07T10:49:08.173Z,63.21
2017-02-07T10:50:07.826Z,63.07
2017-02-07T10:51:07.487Z,64.34
2017-02-07T10:52:08.117Z,64.38
2017-02-07T10:53:07.806Z,63.92
2017-02-07T10:54:07.400Z,64.07
2017-02-07T10:55:08.059Z,64.51
2017-02-07T10:56:07.748Z,64.52
2017-02-07T10:57:08.479Z,64.44
2017-02-07T10:58:08.105Z,64.23
2017-02-07T10:59:07.775Z,64.35
2017-02-07T11:00:07.454Z,63.90
2017-02-07T11:01:08.072Z,64.15
2017-02-07T11:02:07.722Z,63.82
2017-02-07T11:03:08.415Z,64.61
2017-02-07T11:04:08.059Z,64.18
2017-02-07T11:05:07.661Z,64.62
2017-02-07T11:06:07.515Z,63.44
2017-02-07T11:07:08.084Z,62.68
2017-02-07T11:08:07.747Z,62.52
2017-02-07T11:09:08.448Z,63.27
2017-02-07T11:10:07.959Z,63.19
2017-02-07T11:11:07.643Z,64.03
2017-02-07T11:12:08.311Z,63.31
2017-02-07T11:13:07.990Z,62.46
2017-02-07T11:14:07.635Z,62.21
2017-02-07T11:15:08.278Z,63.07
2017-02-07T11:16:16.434Z,63.10
2017-02-07T11:17:07.647Z,63.58
2017-02-07T11:18:08.472Z,63.44
2017-02-07T11:19:08.036Z,63.58
2017-02-07T11:20:07.717Z,64.31
2017-02-07T11:21:08.360Z,63.87
2017-02-07T11:22:07.979Z,64.26
2017-02-07T11:23:07.731Z,63.57
2017-02-07T11:24:08.322Z,63.82
2017-02-07T11:25:08.000Z,62.80
2017-02-07T11:26:07.798Z,62.75
2017-02-07T11:27:08.322Z,62.65
2017-02-07T11:28:08.029Z,61.93
2017-02-07T11:29:07.647Z,62.11
2017-02-07T11:30:08.311Z,61.82
2017-02-07T11:31:07.946Z,61.51
2017-02-07T11:32:07.579Z,61.56
2017-02-07T11:33:08.292Z,61.78
2017-02-07T11:34:07.905Z,60.71
2017-02-07T11:35:07.572Z,61.01
2017-02-07T11:36:08.271Z,60.67
2017-02-07T11:37:07.976Z,61.01
2017-02-07T11:38:07.631Z,61.35
2017-02-07T11:39:08.279Z,61.94
2017-02-07T11:40:07.927Z,62.55
2017-02-07T11:41:07.573Z,62.20
2017-02-07T11:42:08.251Z,62.22
2017-02-07T11:43:07.905Z,62.49
2017-02-07T11:44:07.551Z,63.15
2017-02-07T11:45:08.256Z,62.88
2017-02-07T11:46:07.852Z,62.42
2017-02-07T11:47:07.490Z,62.01
2017-02-07T11:48:08.275Z,61.86
2017-02-07T11:49:07.815Z,62.06
2017-02-07T11:50:07.425Z,61.53
2017-02-07T11:51:08.113Z,61.74
2017-02-07T11:52:07.775Z,62.71
2017-02-07T11:53:07.470Z,62.36
2017-02-07T11:54:08.064Z,62.19
2017-02-07T11:55:07.762Z,62.28
2017-02-07T11:56:07.432Z,62.25
2017-02-07T11:57:08.282Z,61.95
2017-02-07T11:58:07.887Z,61.83
2017-02-07T11:59:07.561Z,62.30
2017-02-07T12:00:08.184Z,61.89
2017-02-07T12:01:07.862Z,62.19
2017-02-07T12:02:07.508Z,62.41
2017-02-07T12:03:08.280Z,62.15
2017-02-07T12:04:07.808Z,62.09
2017-02-07T12:05:07.465Z,62.02
2017-02-07T12:06:08.124Z,61.38
2017-02-07T12:07:07.761Z,61.97
2017-02-07T12:08:07.441Z,60.92
2017-02-07T12:09:08.031Z,60.23
2017-02-07T12:10:08.715Z,60.43
2017-02-07T12:11:08.393Z,59.86
2017-02-07T12:12:07.999Z,59.48
2017-02-07T12:13:07.696Z,60.27
2017-02-07T12:14:08.266Z,60.01
2017-02-07T12:15:07.929Z,60.56
2017-02-07T12:16:07.592Z,61.15
2017-02-07T12:17:08.305Z,60.41
2017-02-07T12:18:08.106Z,60.70
2017-02-07T12:19:07.634Z,59.96
2017-02-07T12:20:08.333Z,59.76
2017-02-07T12:21:08.006Z,60.20
2017-02-07T12:22:07.619Z,59.91
2017-02-07T12:23:08.339Z,58.86
2017-02-07T12:24:07.935Z,59.13
2017-02-07T12:25:07.559Z,60.15
2017-02-07T12:26:08.294Z,59.57
2017-02-07T12:27:08.073Z,58.79
2017-02-07T12:28:07.783Z,59.37
2017-02-07T12:29:08.361Z,59.40
2017-02-07T12:30:08.037Z,59.51
2017-02-07T12:31:07.685Z,58.12
2017-02-07T12:32:08.302Z,58.48
2017-02-07T12:33:08.010Z,57.89
2017-02-07T12:34:07.667Z,57.93
2017-02-07T12:35:08.263Z,57.99
2017-02-07T12:36:07.959Z,58.35
2017-02-07T12:37:07.611Z,58.41
2017-02-07T12:38:08.269Z,58.59
2017-02-07T12:39:07.966Z,58.72
2017-02-07T12:40:07.584Z,58.67
2017-02-07T12:41:08.236Z,59.49
2017-02-07T12:42:07.862Z,58.78
2017-02-07T12:43:07.589Z,59.24
2017-02-07T12:44:08.238Z,59.34
2017-02-07T12:45:07.835Z,59.29
2017-02-07T12:46:07.518Z,59.60
2017-02-07T12:47:08.155Z,60.55
2017-02-07T12:48:07.850Z,60.45
2017-02-07T12:49:07.466Z,60.24
2017-02-07T12:50:08.093Z,60.67
2017-02-07T12:51:07.776Z,60.66
2017-02-07T12:52:08.389Z,60.76
2017-02-07T12:53:08.090Z,60.13
2017-02-07T12:54:07.714Z,60.16
2017-02-07T12:55:08.359Z,59.55
2017-02-07T12:56:07.980Z,59.51
2017-02-07T12:57:07.829Z,59.60
2017-02-07T12:58:07.523Z,60.74
2017-02-07T12:59:08.156Z,60.38